glasistre.hr alexa rank chart, glasistre.hr alexa rank daily changes

glasistre.hr alexa rank chart, glasistre.hr alexa rank daily changes

glasistre.hr
Actual rank:
89 669

RANK HISTORY

Date Rank Diff
2018/04/26 89 669 -6 669
2018/04/25 96 338 -62 216
2018/04/24 158 554 +90 711
2018/04/23 67 843 -33 476
2018/04/22 101 319 +16 373
2018/04/21 84 946 -781
2018/04/20 85 727 -26 542
2018/04/19 112 269 +26 940
2018/04/18 85 329 -1 812
2018/04/17 87 141 -34 810
2018/04/16 121 951 -34 519
2018/04/15 156 470 +81 542
2018/04/14 74 928 -3 418
2018/04/13 78 346 -17 678
2018/04/12 96 024 -13 134
2018/04/11 109 158 -768
2018/04/10 109 926 +28 185
2018/04/09 81 741 -21 616
2018/04/08 103 357 +1 762
2018/04/07 101 595 +10 853
2018/04/06 90 742 -17 819
2018/04/05 108 561 -203
2018/04/04 108 764 +8 072
2018/04/03 100 692 +6 350
2018/04/02 94 342 +9 429
2018/04/01 84 913 -37 082
2018/03/31 121 995 +27 832
2018/03/30 94 163 -1 677
2018/03/29 95 840 -52 329
2018/03/28 148 169 +41 432
2018/03/27 106 737 +9 386
2018/03/26 97 351 -32 968
2018/03/25 130 319 +24 900
2018/03/24 105 419 -9 165
2018/03/23 114 584 +34 855
2018/03/22 79 729 -17 750
2018/03/21 97 479 -5 701
2018/03/20 103 180 +10 371
2018/03/19 92 809 -6 592
2018/03/18 99 401 -13 954
2018/03/17 113 355 +27 418
2018/03/16 85 937 +5 920
2018/03/15 80 017 -11 522
2018/03/14 91 539 -8 508
2018/03/13 100 047 +16 607
2018/03/12 83 440 -17 177
2018/03/11 100 617 +4 183
2018/03/10 96 434 +7 333
2018/03/09 89 101 -20 958
2018/03/08 110 059 +21 891
2018/03/07 88 168 -50 309
2018/03/06 138 477 +38 719
2018/03/05 99 758 +23 292
2018/03/04 76 466 -30 420
2018/03/03 106 886 +33 341
2018/03/02 73 545 -20 666
2018/03/01 94 211 -9 115
2018/02/28 103 326 +1 850
2018/02/27 101 476 +14 874
2018/02/26 86 602 -7 062
2018/02/25 93 664

WIDGET FOR YOUR SITE

DOMAINS WITH THE NEAREST RANK

Domain Rank
power-technology.com 89 664
brewdog.com 89 665
neetnotification.in 89 666
vakantieveilingen.be 89 667
us-proxy.org 89 668
glasistre.hr 89 669
bevnet.com 89 670
essay.uk.com 89 671
spclub42.ru 89 672
swapnilpatni.com 89 673
viralandroid.com 89 674

DOMAINS WITH THE NEAREST RANK BY TLD .hr

Domain Rank
hcl.hr 83 323
unist.hr 83 489
ekupi.hr 83 572
zivim.hr 86 801
mojekrpice.hr 88 222
glasistre.hr 89 669
uredjenazemlja.hr 89 882
tele2.hr 93 202
enciklopedija.hr 93 709
jeftinije.hr 95 655
mall.hr 96 930